Capt Ryan — WDB8186 — position and weather

sailwx.info

Track history (hours):
 
Tides and Currents Weather Stations Pressure Air Temp Water Temp Dewpoint Dewpoint Depression Visibility Wind Speed Wind Dir Waves Ship Positions

Capt Ryan

Owner: MORRISON, THOMAS H, WARRENTON, OR. More information available from US FCC via Universal Licensing System and Coast Guard Vessel Documentation Center.

Last reported at 2018-Jun-25 05:30 UTC. Time now 2018-Jun-25 05:34 UTC.
Position N 46°19' W 124°09'.

Length 19 m.

Type: Ship. MMSI: 366954430.

Date/timePositionNaut miles runAvg speedWind from/ knotsBaromVisibWave heightAir tempDewpointWater temp
2018-Jun-25 05:30N 46°19' W 124°09'4 8.7
2018-Jun-25 05:01N 46°22' W 124°11'4 8.6
2018-Jun-25 04:31N 46°26' W 124°14'4 8.3
2018-Jun-25 04:01N 46°30' W 124°17'4 8.3
2018-Jun-25 03:30N 46°34' W 124°20'4 8.3
2018-Jun-25 03:01N 46°37' W 124°23'4 8.6
2018-Jun-25 02:30N 46°41' W 124°26'4 8.6
2018-Jun-25 02:00N 46°44' W 124°31'6 8.7
2018-Jun-25 01:17N 46°48' W 124°37'1 3.2
2018-Jun-25 00:58N 46°49' W 124°38'0 1.0
2018-Jun-25 00:31N 46°49' W 124°37'3 5.5
2018-Jun-25 00:00N 46°52' W 124°39'2 3.6
2018-Jun-24 23:30N 46°53' W 124°40'1 2.6
2018-Jun-24 23:00N 46°54' W 124°40'2 3.5
2018-Jun-24 22:31N 46°56' W 124°41'1 1.9
2018-Jun-24 22:00N 46°57' W 124°41'1 1.9
2018-Jun-24 21:30N 46°58' W 124°42'1 1.9
2018-Jun-24 21:00N 46°59' W 124°42'4 1.1
2018-Jun-24 17:11N 46°60' W 124°48'4 1.9
2018-Jun-24 15:17N 47°03' W 124°50'5 0.3
2018-Jun-24 00:13N 46°59' W 124°48'0 1.7
2018-Jun-24 00:00N 46°59' W 124°48'1 0.2
2018-Jun-23 20:08N 46°60' W 124°48'1 1.6
2018-Jun-23 19:49N 46°59' W 124°48'0 0.0
2018-Jun-23 05:11N 46°60' W 124°48'0 1.8
2018-Jun-23 04:57N 46°60' W 124°48'2 0.1
2018-Jun-21 21:13N 46°60' W 124°51'1 0.3
2018-Jun-21 19:08N 46°59' W 124°50'0 0.3
2018-Jun-21 18:58N 46°59' W 124°50'1 0.8
2018-Jun-21 17:17N 46°59' W 124°48'0 1.4
2018-Jun-21 16:59N 46°58' W 124°48'2 0.6
2018-Jun-21 14:39N 46°60' W 124°50'3 1.7
2018-Jun-21 12:52N 46°59' W 124°45'1 3.1
2018-Jun-21 12:29N 46°59' W 124°47'6 7.3
2018-Jun-21 11:42N 46°53' W 124°44'4 7.5
2018-Jun-21 11:09N 46°49' W 124°43'1 7.8
2018-Jun-21 11:00N 46°48' W 124°42'4 7.8
2018-Jun-21 10:30N 46°44' W 124°41'4 7.4
2018-Jun-21 10:00N 46°41' W 124°40'4 7.7
2018-Jun-21 09:30N 46°37' W 124°39'5 7.7
2018-Jun-21 08:48N 46°32' W 124°37'2 7.5
2018-Jun-21 08:31N 46°30' W 124°37'4 7.4
2018-Jun-21 08:01N 46°26' W 124°36'4 7.3
2018-Jun-21 07:31N 46°22' W 124°35'4 7.1
2018-Jun-21 06:59N 46°19' W 124°33'3 7.0
2018-Jun-21 06:31N 46°16' W 124°32'5 7.0
2018-Jun-21 05:49N 46°11' W 124°30'2 7.3
2018-Jun-21 05:30N 46°09' W 124°29'4 7.3
2018-Jun-21 05:01N 46°05' W 124°27'4 7.3
2018-Jun-21 04:31N 46°02' W 124°26'4 7.4
2018-Jun-21 04:01N 45°58' W 124°24'4 7.4
2018-Jun-21 03:25N 45°54' W 124°22'6 7.8
2018-Jun-21 02:38N 45°48' W 124°20'2 7.9
2018-Jun-21 02:26N 45°47' W 124°20'5 8.4
2018-Jun-21 01:49N 45°42' W 124°18'3 9.4
2018-Jun-21 01:27N 45°38' W 124°18'3 7.4
2018-Jun-21 01:00N 45°35' W 124°18'4 4.9
2018-Jun-21 00:11N 45°31' W 124°18'0 0.9
2018-Jun-20 23:47N 45°30' W 124°18'1 1.9
2018-Jun-20 23:19N 45°30' W 124°18'1 2.2
2018-Jun-20 22:48N 45°29' W 124°18'3 5.7
2018-Jun-20 22:21N 45°26' W 124°18'2 4.0
2018-Jun-20 21:57N 45°24' W 124°18'2 3.3
2018-Jun-20 21:14N 45°22' W 124°16'0 1.4
2018-Jun-20 21:00N 45°22' W 124°16'1 1.2
2018-Jun-20 20:27N 45°21' W 124°16'1 1.6
2018-Jun-20 19:58N 45°20' W 124°16'1 2.4
2018-Jun-20 19:21N 45°20' W 124°14'0 0.7
2018-Jun-20 19:00N 45°20' W 124°14'1 1.3
2018-Jun-20 18:12N 45°19' W 124°14'0 1.4
2018-Jun-20 17:56N 45°18' W 124°14'2 3.3
2018-Jun-20 17:24N 45°18' W 124°16'1 1.3
2018-Jun-20 16:50N 45°19' W 124°17'1 1.6
2018-Jun-20 16:24N 45°19' W 124°17'2 1.8
2018-Jun-20 15:14N 45°21' W 124°17'0 1.5
2018-Jun-20 14:59N 45°22' W 124°17'1 1.7
2018-Jun-20 14:26N 45°23' W 124°17'2 2.0
2018-Jun-20 13:37N 45°24' W 124°17'0 0.8
2018-Jun-20 13:30N 45°24' W 124°17'2 0.9
2018-Jun-20 11:45N 45°23' W 124°18'1 0.7
2018-Jun-20 10:46N 45°23' W 124°19'0 0.5
2018-Jun-20 10:30N 45°23' W 124°20'0 0.3
2018-Jun-20 09:56N 45°23' W 124°20'0 0.2
2018-Jun-20 09:30N 45°23' W 124°20'0 0.3
2018-Jun-20 09:01N 45°24' W 124°20'0 0.4
2018-Jun-20 08:30N 45°24' W 124°20'0 0.4
2018-Jun-20 08:00N 45°24' W 124°19'0 0.6
2018-Jun-20 07:31N 45°24' W 124°19'1 2.2
2018-Jun-20 06:59N 45°25' W 124°20'11 7.5
2018-Jun-20 05:36N 45°34' W 124°29'1 7.7
2018-Jun-20 05:30N 45°34' W 124°29'4 7.7
2018-Jun-20 05:01N 45°37' W 124°33'4 7.6
2018-Jun-20 04:30N 45°41' W 124°35'2 4.8
2018-Jun-20 04:00N 45°43' W 124°36'1 1.8
2018-Jun-20 03:20N 45°44' W 124°36'1 1.8
2018-Jun-20 03:00N 45°45' W 124°35'1 1.8
2018-Jun-20 02:30N 45°45' W 124°35'1 1.8
2018-Jun-20 02:00N 45°46' W 124°34'1 1.8
2018-Jun-20 01:31N 45°47' W 124°33'1 1.9
2018-Jun-20 01:00N 45°47' W 124°32'3 5.0
2018-Jun-20 00:29N 45°50' W 124°31'3 6.3
2018-Jun-20 00:01N 45°53' W 124°30'3 6.1
2018-Jun-19 23:30N 45°56' W 124°31'3 6.3
2018-Jun-19 23:00N 45°59' W 124°32'3 5.2
2018-Jun-19 22:30N 46°01' W 124°34'1 1.3
2018-Jun-19 22:00N 46°02' W 124°34'3 3.6
2018-Jun-19 21:09N 46°05' W 124°34'1 3.8
2018-Jun-19 20:55N 46°06' W 124°33'0 1.1
2018-Jun-19 20:31N 46°06' W 124°33'1 2.1
2018-Jun-19 20:01N 46°07' W 124°32'3 5.2
2018-Jun-19 19:31N 46°09' W 124°30'1 1.1
2018-Jun-19 19:01N 46°09' W 124°29'1 1.7
2018-Jun-19 18:30N 46°10' W 124°28'3 3.6
2018-Jun-19 17:45N 46°11' W 124°24'2 8.3
2018-Jun-19 17:31N 46°13' W 124°23'4 7.7
2018-Jun-19 17:01N 46°14' W 124°18'910.5
2018-Jun-19 16:07N 46°15' W 124°04'113.2
2018-Jun-19 16:01N 46°15' W 124°02'811.3
2018-Jun-19 15:16N 46°11' W 123°51'0 0.0
2018-Jun-19 15:00N 46°11' W 123°51'0 0.0
2018-Jun-19 14:22N 46°11' W 123°51'0 0.0
2018-Jun-19 14:01N 46°11' W 123°51'0 0.8
2018-Jun-19 13:31N 46°11' W 123°52'2 4.7
2018-Jun-19 13:00N 46°10' W 123°55'0 0.0
2018-Jun-19 12:30N 46°10' W 123°55'0 0.0
2018-Jun-19 12:00N 46°10' W 123°55'0 0.0
2018-Jun-19 11:28N 46°10' W 123°55'0 0.0
2018-Jun-19 11:00N 46°10' W 123°55'0 0.0
2018-Jun-19 10:30N 46°10' W 123°55'0 0.0
2018-Jun-19 10:01N 46°10' W 123°55'0 0.0
2018-Jun-19 09:30N 46°10' W 123°55'0 0.0
2018-Jun-19 09:00N 46°10' W 123°55'0 0.0
2018-Jun-19 08:31N 46°10' W 123°55'0 0.0
2018-Jun-19 08:00N 46°10' W 123°55'0 0.0
2018-Jun-19 07:30N 46°10' W 123°55'0 0.0
2018-Jun-19 07:00N 46°10' W 123°55'0 0.0
2018-Jun-19 06:31N 46°10' W 123°55'0 0.0
2018-Jun-19 06:01N 46°10' W 123°55'0 0.0
2018-Jun-19 05:31N 46°10' W 123°55'0 0.0
2018-Jun-19 05:01N 46°10' W 123°55'0 0.0
2018-Jun-19 04:30N 46°10' W 123°55'0 0.0
2018-Jun-19 04:01N 46°10' W 123°55'0 0.0
2018-Jun-19 03:30N 46°10' W 123°55'0 0.0
2018-Jun-19 03:00N 46°10' W 123°55'0 0.0
2018-Jun-19 02:30N 46°10' W 123°55'0 0.0
2018-Jun-19 02:00N 46°10' W 123°55'0 0.0
2018-Jun-19 01:30N 46°10' W 123°55'0 0.0
2018-Jun-19 01:01N 46°10' W 123°55'0 0.0
2018-Jun-19 00:31N 46°10' W 123°55'0 0.0
2018-Jun-19 00:00N 46°10' W 123°55'0 0.0
2018-Jun-18 23:30N 46°10' W 123°55'0 0.0
2018-Jun-18 23:01N 46°10' W 123°55'0 0.0
2018-Jun-18 22:31N 46°10' W 123°55'0 0.0
2018-Jun-18 22:01N 46°10' W 123°55'0 0.0
2018-Jun-18 21:30N 46°10' W 123°55'0 0.0
2018-Jun-18 21:00N 46°10' W 123°55'0 0.0
2018-Jun-18 20:30N 46°10' W 123°55'0 0.0
2018-Jun-18 20:00N 46°10' W 123°55'0 0.0
2018-Jun-18 19:31N 46°10' W 123°55'0 0.0
2018-Jun-18 19:01N 46°10' W 123°55'0 0.0
2018-Jun-18 18:30N 46°10' W 123°55'0 0.0
2018-Jun-18 18:00N 46°10' W 123°55'0 0.0
2018-Jun-18 17:21N 46°10' W 123°55'0 0.0
2018-Jun-18 17:00N 46°10' W 123°55'0 0.0
2018-Jun-18 16:30N 46°10' W 123°55'0 0.0
2018-Jun-18 16:00N 46°10' W 123°55'0 0.0
2018-Jun-18 15:31N 46°10' W 123°55'0 0.0
2018-Jun-18 15:01N 46°10' W 123°55'0 0.0
2018-Jun-18 14:30N 46°10' W 123°55'0 0.0
2018-Jun-18 14:01N 46°10' W 123°55'0 0.0
2018-Jun-18 13:31N 46°10' W 123°55'0 0.0
2018-Jun-18 13:00N 46°10' W 123°55'0 0.0
2018-Jun-18 12:30N 46°10' W 123°55'0 0.0
2018-Jun-18 12:01N 46°10' W 123°55'0 0.0
2018-Jun-18 11:30N 46°10' W 123°55'0 0.0
2018-Jun-18 11:00N 46°10' W 123°55'0 0.0
2018-Jun-18 10:30N 46°10' W 123°55'0 0.0
2018-Jun-18 10:00N 46°10' W 123°55'0 0.0
2018-Jun-18 09:29N 46°10' W 123°55'0 0.0
2018-Jun-18 09:00N 46°10' W 123°55'0 0.0
2018-Jun-18 08:31N 46°10' W 123°55'0 0.0
2018-Jun-18 08:00N 46°10' W 123°55'0 0.0
2018-Jun-18 07:30N 46°10' W 123°55'0 0.0
2018-Jun-18 07:00N 46°10' W 123°55'0 0.0
2018-Jun-18 06:30N 46°10' W 123°55'0 0.0
2018-Jun-18 06:00N 46°10' W 123°55'0 0.0
2018-Jun-18 05:31N 46°10' W 123°55'0 0.0
2018-Jun-18 05:01N 46°10' W 123°55'0 0.0
2018-Jun-18 04:30N 46°10' W 123°55'0 0.0
2018-Jun-18 04:01N 46°10' W 123°55'0 0.0
2018-Jun-18 03:30N 46°10' W 123°55'0 0.0
2018-Jun-18 03:00N 46°10' W 123°55'0 0.0
2018-Jun-18 02:06N 46°10' W 123°55'0 0.0
2018-Jun-18 02:00N 46°10' W 123°55'0 0.0
2018-Jun-18 01:31N 46°10' W 123°55'0 0.0
2018-Jun-18 01:00N 46°10' W 123°55'0 0.0
2018-Jun-18 00:30N 46°10' W 123°55'0 0.0
2018-Jun-18 00:00N 46°10' W 123°55'0 0.0
2018-Jun-17 23:31N 46°10' W 123°55'0 0.0
2018-Jun-17 22:47N 46°10' W 123°55'0 0.0
2018-Jun-17 22:30N 46°10' W 123°55'0 0.0
2018-Jun-17 22:00N 46°10' W 123°55'0 0.0
2018-Jun-17 21:18N 46°10' W 123°55'0 0.0
2018-Jun-17 20:57N 46°10' W 123°55'0 0.0
2018-Jun-17 20:23N 46°10' W 123°55'0 0.0
2018-Jun-17 20:01N 46°10' W 123°55'0 0.0
2018-Jun-17 19:31N 46°10' W 123°55'0 0.0
2018-Jun-17 19:01N 46°10' W 123°55'0 0.0
2018-Jun-17 18:31N 46°10' W 123°55'0 0.0
2018-Jun-17 18:00N 46°10' W 123°55'0 0.0
2018-Jun-17 17:31N 46°10' W 123°55'0 0.0
2018-Jun-17 17:00N 46°10' W 123°55'0 0.0
2018-Jun-17 16:30N 46°10' W 123°55'0 0.0
2018-Jun-17 15:56N 46°10' W 123°55'3 6.3
2018-Jun-17 15:31N 46°11' W 123°51'0 0.0
2018-Jun-17 15:00N 46°11' W 123°51'0 0.0
2018-Jun-17 14:30N 46°11' W 123°51'0 0.0
2018-Jun-17 14:01N 46°11' W 123°51'0 0.0
2018-Jun-17 13:30N 46°11' W 123°51'0 0.0
2018-Jun-17 13:00N 46°11' W 123°51'0 0.0
2018-Jun-17 12:30N 46°11' W 123°51'0 0.0
2018-Jun-17 12:00N 46°11' W 123°51'0 0.0
2018-Jun-17 11:31N 46°11' W 123°51'0 0.0
2018-Jun-17 11:00N 46°11' W 123°51'0 0.0
2018-Jun-17 10:31N 46°11' W 123°51'0 0.0
2018-Jun-17 09:44N 46°11' W 123°51'0 0.0
2018-Jun-17 09:31N 46°11' W 123°51'3 5.5
2018-Jun-17 09:00N 46°12' W 123°55'510.2
2018-Jun-17 08:31N 46°15' W 124°01'5 9.1
2018-Jun-17 08:00N 46°17' W 124°07'4 8.3
2018-Jun-17 07:31N 46°21' W 124°10'4 8.5
2018-Jun-17 06:59N 46°25' W 124°13'4 8.2
2018-Jun-17 06:31N 46°28' W 124°15'4 8.6
2018-Jun-17 06:01N 46°32' W 124°18'4 9.0
2018-Jun-17 05:31N 46°36' W 124°22'4 8.9
2018-Jun-17 05:00N 46°39' W 124°25'4 8.4
2018-Jun-17 04:30N 46°42' W 124°30'4 8.3
2018-Jun-17 04:01N 46°45' W 124°35'4 8.3
2018-Jun-17 03:30N 46°48' W 124°38'4 7.8
2018-Jun-17 03:00N 46°51' W 124°42'4 8.3
2018-Jun-17 02:30N 46°55' W 124°45'4 8.2
2018-Jun-17 02:00N 46°59' W 124°47'1 2.7
2018-Jun-17 01:30N 46°60' W 124°48'1 0.4
2018-Jun-16 21:41N 47°00' W 124°50'0 1.3
2018-Jun-16 21:30N 47°00' W 124°50'1 1.5
2018-Jun-16 21:00N 46°59' W 124°49'1 1.5
2018-Jun-16 20:08N 46°59' W 124°48'0 1.5
2018-Jun-16 19:58N 46°59' W 124°47'1 1.5
2018-Jun-16 19:27N 46°58' W 124°46'3 0.2
2018-Jun-15 22:25N 46°55' W 124°45'0 0.8
2018-Jun-15 22:00N 46°55' W 124°45'1 1.6
2018-Jun-15 21:31N 46°54' W 124°44'1 1.5
2018-Jun-15 21:00N 46°54' W 124°43'1 2.9
2018-Jun-15 20:30N 46°52' W 124°43'1 1.4
2018-Jun-15 20:00N 46°53' W 124°43'1 1.9
2018-Jun-15 19:28N 46°54' W 124°44'2 3.6
2018-Jun-15 18:52N 46°54' W 124°47'0 1.0
2018-Jun-15 18:22N 46°54' W 124°47'1 1.7
2018-Jun-15 18:00N 46°54' W 124°46'1 1.8
2018-Jun-15 17:19N 46°54' W 124°44'1 1.8
2018-Jun-15 17:00N 46°54' W 124°43'1 1.8
2018-Jun-15 16:29N 46°53' W 124°42'2 3.9
2018-Jun-15 15:51N 46°51' W 124°40'3 7.5
2018-Jun-15 15:30N 46°49' W 124°38'4 7.5
2018-Jun-15 15:00N 46°46' W 124°35'4 7.5
2018-Jun-15 14:31N 46°43' W 124°32'4 7.4
2018-Jun-15 14:00N 46°40' W 124°29'4 7.4
2018-Jun-15 13:31N 46°36' W 124°28'4 7.1
2018-Jun-15 13:00N 46°33' W 124°26'4 7.3
2018-Jun-15 12:30N 46°29' W 124°28'5 7.0
2018-Jun-15 11:50N 46°25' W 124°28'2 7.3
2018-Jun-15 11:31N 46°22' W 124°27'4 7.6
2018-Jun-15 11:01N 46°19' W 124°27'4 7.8
2018-Jun-15 10:30N 46°15' W 124°26'7 8.0
2018-Jun-15 09:37N 46°08' W 124°26'1 7.8
2018-Jun-15 09:30N 46°07' W 124°25'4 7.8
2018-Jun-15 09:01N 46°03' W 124°24'4 7.6
2018-Jun-15 08:30N 45°59' W 124°24'4 7.5
2018-Jun-15 08:01N 45°55' W 124°23'5 7.8
2018-Jun-15 07:19N 45°50' W 124°22'3 7.8
2018-Jun-15 06:59N 45°48' W 124°22'4 7.7
2018-Jun-15 06:29N 45°44' W 124°21'3 7.4
2018-Jun-15 06:01N 45°40' W 124°21'4 7.2
2018-Jun-15 05:31N 45°37' W 124°20'  
Track history (hours):
 
Tides and Currents Weather Stations Pressure Air Temp Water Temp Dewpoint Dewpoint Depression Visibility Wind Speed Wind Dir Waves Ship Positions

Capt Ryan

Owner: MORRISON, THOMAS H, WARRENTON, OR. More information available from US FCC via Universal Licensing System and Coast Guard Vessel Documentation Center.

Last reported at 2018-Jun-25 05:30 UTC. Time now 2018-Jun-25 05:34 UTC.
Position N 46°19' W 124°09'.

Length 19 m.

Type: Ship. MMSI: 366954430.

Date/timePositionNaut miles runAvg speedWind from/ knotsBaromVisibWave heightAir tempDewpointWater temp
2018-Jun-25 05:30N 46°19' W 124°09'4 8.7
2018-Jun-25 05:01N 46°22' W 124°11'4 8.6
2018-Jun-25 04:31N 46°26' W 124°14'4 8.3
2018-Jun-25 04:01N 46°30' W 124°17'4 8.3
2018-Jun-25 03:30N 46°34' W 124°20'4 8.3
2018-Jun-25 03:01N 46°37' W 124°23'4 8.6
2018-Jun-25 02:30N 46°41' W 124°26'4 8.6
2018-Jun-25 02:00N 46°44' W 124°31'6 8.7
2018-Jun-25 01:17N 46°48' W 124°37'1 3.2
2018-Jun-25 00:58N 46°49' W 124°38'0 1.0
2018-Jun-25 00:31N 46°49' W 124°37'3 5.5
2018-Jun-25 00:00N 46°52' W 124°39'2 3.6
2018-Jun-24 23:30N 46°53' W 124°40'1 2.6
2018-Jun-24 23:00N 46°54' W 124°40'2 3.5
2018-Jun-24 22:31N 46°56' W 124°41'1 1.9
2018-Jun-24 22:00N 46°57' W 124°41'1 1.9
2018-Jun-24 21:30N 46°58' W 124°42'1 1.9
2018-Jun-24 21:00N 46°59' W 124°42'4 1.1
2018-Jun-24 17:11N 46°60' W 124°48'4 1.9
2018-Jun-24 15:17N 47°03' W 124°50'5 0.3
2018-Jun-24 00:13N 46°59' W 124°48'0 1.7
2018-Jun-24 00:00N 46°59' W 124°48'1 0.2
2018-Jun-23 20:08N 46°60' W 124°48'1 1.6
2018-Jun-23 19:49N 46°59' W 124°48'0 0.0
2018-Jun-23 05:11N 46°60' W 124°48'0 1.8
2018-Jun-23 04:57N 46°60' W 124°48'2 0.1
2018-Jun-21 21:13N 46°60' W 124°51'1 0.3
2018-Jun-21 19:08N 46°59' W 124°50'0 0.3
2018-Jun-21 18:58N 46°59' W 124°50'1 0.8
2018-Jun-21 17:17N 46°59' W 124°48'0 1.4
2018-Jun-21 16:59N 46°58' W 124°48'2 0.6
2018-Jun-21 14:39N 46°60' W 124°50'3 1.7
2018-Jun-21 12:52N 46°59' W 124°45'1 3.1
2018-Jun-21 12:29N 46°59' W 124°47'6 7.3
2018-Jun-21 11:42N 46°53' W 124°44'4 7.5
2018-Jun-21 11:09N 46°49' W 124°43'1 7.8
2018-Jun-21 11:00N 46°48' W 124°42'4 7.8
2018-Jun-21 10:30N 46°44' W 124°41'4 7.4
2018-Jun-21 10:00N 46°41' W 124°40'4 7.7
2018-Jun-21 09:30N 46°37' W 124°39'5 7.7
2018-Jun-21 08:48N 46°32' W 124°37'2 7.5
2018-Jun-21 08:31N 46°30' W 124°37'4 7.4
2018-Jun-21 08:01N 46°26' W 124°36'4 7.3
2018-Jun-21 07:31N 46°22' W 124°35'4 7.1
2018-Jun-21 06:59N 46°19' W 124°33'3 7.0
2018-Jun-21 06:31N 46°16' W 124°32'5 7.0
2018-Jun-21 05:49N 46°11' W 124°30'2 7.3
2018-Jun-21 05:30N 46°09' W 124°29'4 7.3
2018-Jun-21 05:01N 46°05' W 124°27'4 7.3
2018-Jun-21 04:31N 46°02' W 124°26'4 7.4
2018-Jun-21 04:01N 45°58' W 124°24'4 7.4
2018-Jun-21 03:25N 45°54' W 124°22'6 7.8
2018-Jun-21 02:38N 45°48' W 124°20'2 7.9
2018-Jun-21 02:26N 45°47' W 124°20'5 8.4
2018-Jun-21 01:49N 45°42' W 124°18'3 9.4
2018-Jun-21 01:27N 45°38' W 124°18'3 7.4
2018-Jun-21 01:00N 45°35' W 124°18'4 4.9
2018-Jun-21 00:11N 45°31' W 124°18'0 0.9
2018-Jun-20 23:47N 45°30' W 124°18'1 1.9
2018-Jun-20 23:19N 45°30' W 124°18'1 2.2
2018-Jun-20 22:48N 45°29' W 124°18'3 5.7
2018-Jun-20 22:21N 45°26' W 124°18'2 4.0
2018-Jun-20 21:57N 45°24' W 124°18'2 3.3
2018-Jun-20 21:14N 45°22' W 124°16'0 1.4
2018-Jun-20 21:00N 45°22' W 124°16'1 1.2
2018-Jun-20 20:27N 45°21' W 124°16'1 1.6
2018-Jun-20 19:58N 45°20' W 124°16'1 2.4
2018-Jun-20 19:21N 45°20' W 124°14'0 0.7
2018-Jun-20 19:00N 45°20' W 124°14'1 1.3
2018-Jun-20 18:12N 45°19' W 124°14'0 1.4
2018-Jun-20 17:56N 45°18' W 124°14'2 3.3
2018-Jun-20 17:24N 45°18' W 124°16'1 1.3
2018-Jun-20 16:50N 45°19' W 124°17'1 1.6
2018-Jun-20 16:24N 45°19' W 124°17'2 1.8
2018-Jun-20 15:14N 45°21' W 124°17'0 1.5
2018-Jun-20 14:59N 45°22' W 124°17'1 1.7
2018-Jun-20 14:26N 45°23' W 124°17'2 2.0
2018-Jun-20 13:37N 45°24' W 124°17'0 0.8
2018-Jun-20 13:30N 45°24' W 124°17'2 0.9
2018-Jun-20 11:45N 45°23' W 124°18'1 0.7
2018-Jun-20 10:46N 45°23' W 124°19'0 0.5
2018-Jun-20 10:30N 45°23' W 124°20'0 0.3
2018-Jun-20 09:56N 45°23' W 124°20'0 0.2
2018-Jun-20 09:30N 45°23' W 124°20'0 0.3
2018-Jun-20 09:01N 45°24' W 124°20'0 0.4
2018-Jun-20 08:30N 45°24' W 124°20'0 0.4
2018-Jun-20 08:00N 45°24' W 124°19'0 0.6
2018-Jun-20 07:31N 45°24' W 124°19'1 2.2
2018-Jun-20 06:59N 45°25' W 124°20'11 7.5
2018-Jun-20 05:36N 45°34' W 124°29'1 7.7
2018-Jun-20 05:30N 45°34' W 124°29'4 7.7
2018-Jun-20 05:01N 45°37' W 124°33'4 7.6
2018-Jun-20 04:30N 45°41' W 124°35'2 4.8
2018-Jun-20 04:00N 45°43' W 124°36'1 1.8
2018-Jun-20 03:20N 45°44' W 124°36'1 1.8
2018-Jun-20 03:00N 45°45' W 124°35'1 1.8
2018-Jun-20 02:30N 45°45' W 124°35'1 1.8
2018-Jun-20 02:00N 45°46' W 124°34'1 1.8
2018-Jun-20 01:31N 45°47' W 124°33'1 1.9
2018-Jun-20 01:00N 45°47' W 124°32'3 5.0
2018-Jun-20 00:29N 45°50' W 124°31'3 6.3
2018-Jun-20 00:01N 45°53' W 124°30'3 6.1
2018-Jun-19 23:30N 45°56' W 124°31'3 6.3
2018-Jun-19 23:00N 45°59' W 124°32'3 5.2
2018-Jun-19 22:30N 46°01' W 124°34'1 1.3
2018-Jun-19 22:00N 46°02' W 124°34'3 3.6
2018-Jun-19 21:09N 46°05' W 124°34'1 3.8
2018-Jun-19 20:55N 46°06' W 124°33'0 1.1
2018-Jun-19 20:31N 46°06' W 124°33'1 2.1
2018-Jun-19 20:01N 46°07' W 124°32'3 5.2
2018-Jun-19 19:31N 46°09' W 124°30'1 1.1
2018-Jun-19 19:01N 46°09' W 124°29'1 1.7
2018-Jun-19 18:30N 46°10' W 124°28'3 3.6
2018-Jun-19 17:45N 46°11' W 124°24'2 8.3
2018-Jun-19 17:31N 46°13' W 124°23'4 7.7
2018-Jun-19 17:01N 46°14' W 124°18'910.5
2018-Jun-19 16:07N 46°15' W 124°04'113.2
2018-Jun-19 16:01N 46°15' W 124°02'811.3
2018-Jun-19 15:16N 46°11' W 123°51'0 0.0
2018-Jun-19 15:00N 46°11' W 123°51'0 0.0
2018-Jun-19 14:22N 46°11' W 123°51'0 0.0
2018-Jun-19 14:01N 46°11' W 123°51'0 0.8
2018-Jun-19 13:31N 46°11' W 123°52'2 4.7
2018-Jun-19 13:00N 46°10' W 123°55'0 0.0
2018-Jun-19 12:30N 46°10' W 123°55'0 0.0
2018-Jun-19 12:00N 46°10' W 123°55'0 0.0
2018-Jun-19 11:28N 46°10' W 123°55'0 0.0
2018-Jun-19 11:00N 46°10' W 123°55'0 0.0
2018-Jun-19 10:30N 46°10' W 123°55'0 0.0
2018-Jun-19 10:01N 46°10' W 123°55'0 0.0
2018-Jun-19 09:30N 46°10' W 123°55'0 0.0
2018-Jun-19 09:00N 46°10' W 123°55'0 0.0
2018-Jun-19 08:31N 46°10' W 123°55'0 0.0
2018-Jun-19 08:00N 46°10' W 123°55'0 0.0
2018-Jun-19 07:30N 46°10' W 123°55'0 0.0
2018-Jun-19 07:00N 46°10' W 123°55'0 0.0
2018-Jun-19 06:31N 46°10' W 123°55'0 0.0
2018-Jun-19 06:01N 46°10' W 123°55'0 0.0
2018-Jun-19 05:31N 46°10' W 123°55'0 0.0
2018-Jun-19 05:01N 46°10' W 123°55'0 0.0
2018-Jun-19 04:30N 46°10' W 123°55'0 0.0
2018-Jun-19 04:01N 46°10' W 123°55'0 0.0
2018-Jun-19 03:30N 46°10' W 123°55'0 0.0
2018-Jun-19 03:00N 46°10' W 123°55'0 0.0
2018-Jun-19 02:30N 46°10' W 123°55'0 0.0
2018-Jun-19 02:00N 46°10' W 123°55'0 0.0
2018-Jun-19 01:30N 46°10' W 123°55'0 0.0
2018-Jun-19 01:01N 46°10' W 123°55'0 0.0
2018-Jun-19 00:31N 46°10' W 123°55'0 0.0
2018-Jun-19 00:00N 46°10' W 123°55'0 0.0
2018-Jun-18 23:30N 46°10' W 123°55'0 0.0
2018-Jun-18 23:01N 46°10' W 123°55'0 0.0
2018-Jun-18 22:31N 46°10' W 123°55'0 0.0
2018-Jun-18 22:01N 46°10' W 123°55'0 0.0
2018-Jun-18 21:30N 46°10' W 123°55'0 0.0
2018-Jun-18 21:00N 46°10' W 123°55'0 0.0
2018-Jun-18 20:30N 46°10' W 123°55'0 0.0
2018-Jun-18 20:00N 46°10' W 123°55'0 0.0
2018-Jun-18 19:31N 46°10' W 123°55'0 0.0
2018-Jun-18 19:01N 46°10' W 123°55'0 0.0
2018-Jun-18 18:30N 46°10' W 123°55'0 0.0
2018-Jun-18 18:00N 46°10' W 123°55'0 0.0
2018-Jun-18 17:21N 46°10' W 123°55'0 0.0
2018-Jun-18 17:00N 46°10' W 123°55'0 0.0
2018-Jun-18 16:30N 46°10' W 123°55'0 0.0
2018-Jun-18 16:00N 46°10' W 123°55'0 0.0
2018-Jun-18 15:31N 46°10' W 123°55'0 0.0
2018-Jun-18 15:01N 46°10' W 123°55'0 0.0
2018-Jun-18 14:30N 46°10' W 123°55'0 0.0
2018-Jun-18 14:01N 46°10' W 123°55'0 0.0
2018-Jun-18 13:31N 46°10' W 123°55'0 0.0
2018-Jun-18 13:00N 46°10' W 123°55'0 0.0
2018-Jun-18 12:30N 46°10' W 123°55'0 0.0
2018-Jun-18 12:01N 46°10' W 123°55'0 0.0
2018-Jun-18 11:30N 46°10' W 123°55'0 0.0
2018-Jun-18 11:00N 46°10' W 123°55'0 0.0
2018-Jun-18 10:30N 46°10' W 123°55'0 0.0
2018-Jun-18 10:00N 46°10' W 123°55'0 0.0
2018-Jun-18 09:29N 46°10' W 123°55'0 0.0
2018-Jun-18 09:00N 46°10' W 123°55'0 0.0
2018-Jun-18 08:31N 46°10' W 123°55'0 0.0
2018-Jun-18 08:00N 46°10' W 123°55'0 0.0
2018-Jun-18 07:30N 46°10' W 123°55'0 0.0
2018-Jun-18 07:00N 46°10' W 123°55'0 0.0
2018-Jun-18 06:30N 46°10' W 123°55'0 0.0
2018-Jun-18 06:00N 46°10' W 123°55'0 0.0
2018-Jun-18 05:31N 46°10' W 123°55'0 0.0
2018-Jun-18 05:01N 46°10' W 123°55'0 0.0
2018-Jun-18 04:30N 46°10' W 123°55'0 0.0
2018-Jun-18 04:01N 46°10' W 123°55'0 0.0
2018-Jun-18 03:30N 46°10' W 123°55'0 0.0
2018-Jun-18 03:00N 46°10' W 123°55'0 0.0
2018-Jun-18 02:06N 46°10' W 123°55'0 0.0
2018-Jun-18 02:00N 46°10' W 123°55'0 0.0
2018-Jun-18 01:31N 46°10' W 123°55'0 0.0
2018-Jun-18 01:00N 46°10' W 123°55'0 0.0
2018-Jun-18 00:30N 46°10' W 123°55'0 0.0
2018-Jun-18 00:00N 46°10' W 123°55'0 0.0
2018-Jun-17 23:31N 46°10' W 123°55'0 0.0
2018-Jun-17 22:47N 46°10' W 123°55'0 0.0
2018-Jun-17 22:30N 46°10' W 123°55'0 0.0
2018-Jun-17 22:00N 46°10' W 123°55'0 0.0
2018-Jun-17 21:18N 46°10' W 123°55'0 0.0
2018-Jun-17 20:57N 46°10' W 123°55'0 0.0
2018-Jun-17 20:23N 46°10' W 123°55'0 0.0
2018-Jun-17 20:01N 46°10' W 123°55'0 0.0
2018-Jun-17 19:31N 46°10' W 123°55'0 0.0
2018-Jun-17 19:01N 46°10' W 123°55'0 0.0
2018-Jun-17 18:31N 46°10' W 123°55'0 0.0
2018-Jun-17 18:00N 46°10' W 123°55'0 0.0
2018-Jun-17 17:31N 46°10' W 123°55'0 0.0
2018-Jun-17 17:00N 46°10' W 123°55'0 0.0
2018-Jun-17 16:30N 46°10' W 123°55'0 0.0
2018-Jun-17 15:56N 46°10' W 123°55'3 6.3
2018-Jun-17 15:31N 46°11' W 123°51'0 0.0
2018-Jun-17 15:00N 46°11' W 123°51'0 0.0
2018-Jun-17 14:30N 46°11' W 123°51'0 0.0
2018-Jun-17 14:01N 46°11' W 123°51'0 0.0
2018-Jun-17 13:30N 46°11' W 123°51'0 0.0
2018-Jun-17 13:00N 46°11' W 123°51'0 0.0
2018-Jun-17 12:30N 46°11' W 123°51'0 0.0
2018-Jun-17 12:00N 46°11' W 123°51'0 0.0
2018-Jun-17 11:31N 46°11' W 123°51'0 0.0
2018-Jun-17 11:00N 46°11' W 123°51'0 0.0
2018-Jun-17 10:31N 46°11' W 123°51'0 0.0
2018-Jun-17 09:44N 46°11' W 123°51'0 0.0
2018-Jun-17 09:31N 46°11' W 123°51'3 5.5
2018-Jun-17 09:00N 46°12' W 123°55'510.2
2018-Jun-17 08:31N 46°15' W 124°01'5 9.1
2018-Jun-17 08:00N 46°17' W 124°07'4 8.3
2018-Jun-17 07:31N 46°21' W 124°10'4 8.5
2018-Jun-17 06:59N 46°25' W 124°13'4 8.2
2018-Jun-17 06:31N 46°28' W 124°15'4 8.6
2018-Jun-17 06:01N 46°32' W 124°18'4 9.0
2018-Jun-17 05:31N 46°36' W 124°22'4 8.9
2018-Jun-17 05:00N 46°39' W 124°25'4 8.4
2018-Jun-17 04:30N 46°42' W 124°30'4 8.3
2018-Jun-17 04:01N 46°45' W 124°35'4 8.3
2018-Jun-17 03:30N 46°48' W 124°38'4 7.8
2018-Jun-17 03:00N 46°51' W 124°42'4 8.3
2018-Jun-17 02:30N 46°55' W 124°45'4 8.2
2018-Jun-17 02:00N 46°59' W 124°47'1 2.7
2018-Jun-17 01:30N 46°60' W 124°48'1 0.4
2018-Jun-16 21:41N 47°00' W 124°50'0 1.3
2018-Jun-16 21:30N 47°00' W 124°50'1 1.5
2018-Jun-16 21:00N 46°59' W 124°49'1 1.5
2018-Jun-16 20:08N 46°59' W 124°48'0 1.5
2018-Jun-16 19:58N 46°59' W 124°47'1 1.5
2018-Jun-16 19:27N 46°58' W 124°46'3 0.2
2018-Jun-15 22:25N 46°55' W 124°45'0 0.8
2018-Jun-15 22:00N 46°55' W 124°45'1 1.6
2018-Jun-15 21:31N 46°54' W 124°44'1 1.5
2018-Jun-15 21:00N 46°54' W 124°43'1 2.9
2018-Jun-15 20:30N 46°52' W 124°43'1 1.4
2018-Jun-15 20:00N 46°53' W 124°43'1 1.9
2018-Jun-15 19:28N 46°54' W 124°44'2 3.6
2018-Jun-15 18:52N 46°54' W 124°47'0 1.0
2018-Jun-15 18:22N 46°54' W 124°47'1 1.7
2018-Jun-15 18:00N 46°54' W 124°46'1 1.8
2018-Jun-15 17:19N 46°54' W 124°44'1 1.8
2018-Jun-15 17:00N 46°54' W 124°43'1 1.8
2018-Jun-15 16:29N 46°53' W 124°42'2 3.9
2018-Jun-15 15:51N 46°51' W 124°40'3 7.5
2018-Jun-15 15:30N 46°49' W 124°38'4 7.5
2018-Jun-15 15:00N 46°46' W 124°35'4 7.5
2018-Jun-15 14:31N 46°43' W 124°32'4 7.4
2018-Jun-15 14:00N 46°40' W 124°29'4 7.4
2018-Jun-15 13:31N 46°36' W 124°28'4 7.1
2018-Jun-15 13:00N 46°33' W 124°26'4 7.3
2018-Jun-15 12:30N 46°29' W 124°28'5 7.0
2018-Jun-15 11:50N 46°25' W 124°28'2 7.3
2018-Jun-15 11:31N 46°22' W 124°27'4 7.6
2018-Jun-15 11:01N 46°19' W 124°27'4 7.8
2018-Jun-15 10:30N 46°15' W 124°26'7 8.0
2018-Jun-15 09:37N 46°08' W 124°26'1 7.8
2018-Jun-15 09:30N 46°07' W 124°25'4 7.8
2018-Jun-15 09:01N 46°03' W 124°24'4 7.6
2018-Jun-15 08:30N 45°59' W 124°24'4 7.5
2018-Jun-15 08:01N 45°55' W 124°23'5 7.8
2018-Jun-15 07:19N 45°50' W 124°22'3 7.8
2018-Jun-15 06:59N 45°48' W 124°22'4 7.7
2018-Jun-15 06:29N 45°44' W 124°21'3 7.4
2018-Jun-15 06:01N 45°40' W 124°21'4 7.2
2018-Jun-15 05:31N 45°37' W 124°20'  

Dump ship's entire track history